Time;durP1;ratioP1;P1;durP2;ratioP2;P2;SDS_P1;SDS_P2;PMS_P1;PMS_P2;Temp;Humidity;BMP_temperature;BMP_pressure;BME280_temperature;BME280_humidity;BME280_pressure;Samples;Min_cycle;Max_cycle;Signal;HPM_P1;HPM_P2
2022/10/30 00:01:24;;;;;;;10.98;5.03;;;;;;;-145.48;100.00;64539.38;5976685;29;20042;-89
2022/10/30 00:04:26;;;;;;;7.65;5.03;;;;;;;-145.48;100.00;64539.38;5989606;29;20042;-89
2022/10/30 00:07:28;;;;;;;9.45;4.53;;;;;;;-145.48;100.00;64539.38;5976275;29;20043;-89
2022/10/30 00:10:30;;;;;;;9.35;4.47;;;;;;;-145.48;100.00;64539.38;5990541;29;20654;-89
2022/10/30 00:13:32;;;;;;;9.98;4.80;;;;;;;-145.48;100.00;64539.38;5976600;29;20051;-89
2022/10/30 00:16:33;;;;;;;9.45;4.22;;;;;;;-145.48;100.00;64539.38;5977561;29;20102;-89
2022/10/30 00:19:41;;;;;;;11.55;4.63;;;;;;;-145.48;100.00;64539.38;5975227;29;20057;-89
2022/10/30 00:22:43;;;;;;;9.95;4.32;;;;;;;-145.48;100.00;64539.38;5990161;29;20406;-89
2022/10/30 00:25:45;;;;;;;11.73;4.72;;;;;;;-145.48;100.00;64539.38;5987376;29;20106;-89
2022/10/30 00:28:50;;;;;;;9.23;4.50;;;;;;;-145.48;100.00;64539.38;5975189;29;20046;-89
2022/10/30 00:31:53;;;;;;;8.77;4.00;;;;;;;-145.48;100.00;64539.38;5990090;29;20046;-89
2022/10/30 00:34:55;;;;;;;10.85;4.22;;;;;;;-145.48;100.00;64539.38;5976102;29;20195;-89
2022/10/30 00:37:58;;;;;;;9.73;4.05;;;;;;;-145.48;100.00;64539.38;5977590;29;20042;-89
2022/10/30 00:41:01;;;;;;;7.18;3.72;;;;;;;-145.48;100.00;64539.38;5976732;29;20629;-89
2022/10/30 00:44:42;;;;;;;8.50;3.88;;;;;;;-145.48;100.00;64539.38;5977104;29;20421;-89
2022/10/30 00:48:02;;;;;;;13.18;4.72;;;;;;;-145.48;100.00;64539.38;5988990;29;20058;-90
2022/10/30 00:51:09;;;;;;;11.68;4.35;;;;;;;-145.48;100.00;64539.38;5975327;29;20054;-89
2022/10/30 00:54:15;;;;;;;8.75;3.90;;;;;;;-145.48;100.00;64539.38;5974595;29;20050;-89
2022/10/30 00:57:17;;;;;;;9.10;4.05;;;;;;;-145.48;100.00;64539.38;5976729;29;20101;-89
2022/10/30 01:00:23;;;;;;;9.68;3.95;;;;;;;-145.48;100.00;64539.38;5981363;29;20049;-89
2022/10/30 01:03:27;;;;;;;14.07;3.90;;;;;;;-145.48;100.00;64539.38;5979537;29;20042;-89
2022/10/30 01:06:32;;;;;;;10.88;3.90;;;;;;;-145.48;100.00;64539.38;5992354;29;20061;-89
2022/10/30 01:09:35;;;;;;;11.50;4.20;;;;;;;-145.48;100.00;64539.38;5981258;29;20102;-89
2022/10/30 01:12:38;;;;;;;8.82;3.90;;;;;;;-145.48;100.00;64539.38;5979736;29;20541;-89
2022/10/30 01:15:57;;;;;;;9.48;4.07;;;;;;;-145.48;100.00;64539.38;5978555;29;20451;-89
2022/10/30 01:18:59;;;;;;;8.50;3.85;;;;;;;-145.48;100.00;64539.38;5979847;29;20780;-90
2022/10/30 01:22:35;;;;;;;12.98;3.90;;;;;;;-145.48;100.00;64539.38;5982415;29;20508;-89
2022/10/30 01:26:15;;;;;;;10.07;4.32;;;;;;;-145.48;100.00;64539.38;5979853;29;20055;-90
2022/10/30 01:29:48;;;;;;;9.77;3.65;;;;;;;-145.48;100.00;64539.38;5989400;29;20382;-89
2022/10/30 01:33:24;;;;;;;12.48;3.55;;;;;;;-145.48;100.00;64539.38;5995739;29;20156;-89
2022/10/30 01:36:56;;;;;;;13.95;3.92;;;;;;;-145.48;100.00;64539.38;5995963;29;20054;-89
2022/10/30 01:40:13;;;;;;;8.05;3.85;;;;;;;-145.48;100.00;64539.38;5995914;29;20046;-90
2022/10/30 01:43:15;;;;;;;8.60;3.53;;;;;;;-145.48;100.00;64539.38;5980783;29;20081;-89
2022/10/30 01:46:55;;;;;;;8.63;4.50;;;;;;;-145.48;100.00;64539.38;5993944;29;20054;-90
2022/10/30 01:50:06;;;;;;;10.55;3.53;;;;;;;-145.48;100.00;64539.38;5994704;29;20071;-89
2022/10/30 01:53:32;;;;;;;7.28;4.22;;;;;;;-145.48;100.00;64539.38;5994334;29;20157;-89
2022/10/30 01:56:42;;;;;;;11.30;4.63;;;;;;;-145.48;100.00;64539.38;5994984;29;20056;-89
2022/10/30 02:00:06;;;;;;;10.48;4.15;;;;;;;-145.48;100.00;64539.38;5979780;29;20501;-89
2022/10/30 02:03:21;;;;;;;7.90;3.72;;;;;;;-145.48;100.00;64539.38;5994525;29;20486;-89
2022/10/30 02:06:25;;;;;;;9.60;3.67;;;;;;;-145.48;100.00;64539.38;5979379;29;20065;-90
2022/10/30 02:09:27;;;;;;;9.52;3.58;;;;;;;-145.48;100.00;64539.38;5994721;29;20118;-89
2022/10/30 02:12:31;;;;;;;10.50;3.58;;;;;;;-145.48;100.00;64539.38;5979564;29;20420;-90
2022/10/30 02:15:34;;;;;;;6.93;3.50;;;;;;;-145.48;100.00;64539.38;5963634;29;20210;-89
2022/10/30 02:18:35;;;;;;;10.98;4.22;;;;;;;-145.48;100.00;64539.38;5993817;29;20085;-89
2022/10/30 02:21:38;;;;;;;7.88;3.85;;;;;;;-145.48;100.00;64539.38;5978810;29;20122;-89
2022/10/30 02:24:40;;;;;;;8.80;3.72;;;;;;;-145.48;100.00;64539.38;5993600;29;20058;-89
2022/10/30 02:27:41;;;;;;;11.32;4.13;;;;;;;-145.48;100.00;64539.38;5994169;29;20138;-89
2022/10/30 02:30:45;;;;;;;10.18;4.20;;;;;;;-145.48;100.00;64539.38;5994684;29;20052;-89
2022/10/30 02:33:47;;;;;;;13.45;4.22;;;;;;;-145.48;100.00;64539.38;5979516;29;20528;-89
2022/10/30 02:36:49;;;;;;;11.00;4.32;;;;;;;-145.48;100.00;64539.38;5979570;29;20065;-89
2022/10/30 02:39:54;;;;;;;10.52;4.00;;;;;;;-145.48;100.00;64539.38;5994479;29;20058;-89
2022/10/30 02:42:56;;;;;;;8.00;3.95;;;;;;;-145.48;100.00;64539.38;5994446;29;20038;-90
2022/10/30 02:45:58;;;;;;;10.18;3.63;;;;;;;-145.48;100.00;64539.38;5980604;29;20043;-90
2022/10/30 02:49:01;;;;;;;11.60;4.03;;;;;;;-145.48;100.00;64539.38;5993846;29;20046;-90
2022/10/30 02:52:05;;;;;;;8.88;3.63;;;;;;;-145.48;100.00;64539.38;5979146;29;20335;-90
2022/10/30 02:55:08;;;;;;;9.80;3.92;;;;;;;-145.48;100.00;64539.38;5993917;29;20214;-90
2022/10/30 02:58:11;;;;;;;12.57;4.22;;;;;;;-145.48;100.00;64539.38;5959065;29;20083;-90
2022/10/30 03:01:17;;;;;;;9.18;3.97;;;;;;;-145.48;100.00;64539.38;5994425;29;20541;-89
2022/10/30 03:04:19;;;;;;;9.82;3.78;;;;;;;-145.48;100.00;64539.38;5992205;29;20046;-89
2022/10/30 03:07:22;;;;;;;6.95;3.67;;;;;;;-145.48;100.00;64539.38;5993639;29;20061;-90
2022/10/30 03:10:24;;;;;;;12.75;4.40;;;;;;;-145.48;100.00;64539.38;5993255;29;20130;-89
2022/10/30 03:13:28;;;;;;;8.98;4.03;;;;;;;-145.48;100.00;64539.38;5992680;29;20129;-89
2022/10/30 03:16:32;;;;;;;9.13;3.83;;;;;;;-145.48;100.00;64539.38;5979680;29;20042;-90
2022/10/30 03:19:34;;;;;;;12.23;3.92;;;;;;;-145.48;100.00;64539.38;5976254;29;20180;-90
2022/10/30 03:22:36;;;;;;;10.32;4.15;;;;;;;-145.48;100.00;64539.38;5992138;29;20042;-89
2022/10/30 03:25:38;;;;;;;9.20;3.97;;;;;;;-145.48;100.00;64539.38;5979043;29;20130;-90
2022/10/30 03:28:40;;;;;;;13.10;4.18;;;;;;;-145.48;100.00;64539.38;5992479;29;20058;-89
2022/10/30 03:31:42;;;;;;;8.25;4.18;;;;;;;-145.48;100.00;64539.38;5992572;29;20057;-90
2022/10/30 03:34:48;;;;;;;11.52;4.15;;;;;;;-145.48;100.00;64539.38;5992354;29;20090;-90
2022/10/30 03:37:52;;;;;;;9.52;3.83;;;;;;;-145.48;100.00;64539.38;5977235;29;20081;-90
2022/10/30 03:40:54;;;;;;;8.35;3.63;;;;;;;-145.48;100.00;64539.38;5991070;29;20057;-90
2022/10/30 03:43:56;;;;;;;7.45;3.97;;;;;;;-145.48;100.00;64539.38;5991648;29;20141;-89
2022/10/30 03:46:59;;;;;;;10.45;4.00;;;;;;;-145.48;100.00;64539.38;5989767;29;20081;-89
2022/10/30 03:50:06;;;;;;;10.45;4.18;;;;;;;-145.48;100.00;64539.38;5992047;29;20050;-89
2022/10/30 03:53:09;;;;;;;9.38;4.30;;;;;;;-145.48;100.00;64539.38;5976977;29;20593;-89
2022/10/30 03:56:10;;;;;;;9.65;3.90;;;;;;;-145.48;100.00;64539.38;5977442;29;20137;-89
2022/10/30 03:59:19;;;;;;;10.52;4.38;;;;;;;-145.48;100.00;64539.38;5976885;29;20087;-89
2022/10/30 04:02:48;;;;;;;10.18;3.85;;;;;;;-145.48;100.00;64539.38;5992151;29;20590;-89
2022/10/30 04:05:52;;;;;;;9.18;3.85;;;;;;;-145.48;100.00;64539.38;5977254;29;20051;-89
2022/10/30 04:08:54;;;;;;;9.90;4.63;;;;;;;-145.48;100.00;64539.38;5991841;29;20654;-89
2022/10/30 04:11:58;;;;;;;10.45;4.60;;;;;;;-145.48;100.00;64539.38;5954929;29;1114709;-89
2022/10/30 04:15:00;;;;;;;11.45;4.32;;;;;;;-145.48;100.00;64539.38;5976572;29;20047;-89
2022/10/30 04:18:02;;;;;;;10.07;4.03;;;;;;;-145.48;100.00;64539.38;5992724;29;20106;-89
2022/10/30 04:21:05;;;;;;;9.35;4.22;;;;;;;-145.48;100.00;64539.38;5992718;29;20141;-89
2022/10/30 04:24:09;;;;;;;9.70;4.25;;;;;;;-145.48;100.00;64539.38;5977797;29;20541;-89
2022/10/30 04:27:12;;;;;;;9.88;4.40;;;;;;;-145.48;100.00;64539.38;5992913;29;20062;-89
2022/10/30 04:30:14;;;;;;;11.40;4.60;;;;;;;-145.48;100.00;64539.38;5978822;29;20494;-89
2022/10/30 04:33:16;;;;;;;11.10;4.70;;;;;;;-145.48;100.00;64539.38;5991412;29;20581;-89
2022/10/30 04:36:20;;;;;;;9.45;4.22;;;;;;;-145.48;100.00;64539.38;5992092;29;20048;-89
2022/10/30 04:39:23;;;;;;;10.40;4.20;;;;;;;-145.48;100.00;64539.38;5992284;29;20051;-89
2022/10/30 04:42:33;;;;;;;13.20;4.30;;;;;;;-145.48;100.00;64539.38;5976842;29;20050;-89
2022/10/30 04:45:36;;;;;;;9.75;4.50;;;;;;;-145.48;100.00;64539.38;5976864;29;20053;-89
2022/10/30 04:48:39;;;;;;;9.15;4.30;;;;;;;-145.48;100.00;64539.38;5992039;29;20054;-89
2022/10/30 04:51:42;;;;;;;14.05;5.25;;;;;;;-145.48;100.00;64539.38;5990005;29;20050;-89
2022/10/30 04:54:44;;;;;;;14.05;4.20;;;;;;;-145.48;100.00;64539.38;5977652;29;20573;-89
2022/10/30 04:57:46;;;;;;;9.02;4.40;;;;;;;-145.48;100.00;64539.38;5991368;29;20414;-89
2022/10/30 05:00:48;;;;;;;8.85;4.07;;;;;;;-145.48;100.00;64539.38;5982203;29;20449;-90
2022/10/30 05:03:49;;;;;;;9.15;4.32;;;;;;;-145.48;100.00;64539.38;5991831;29;20066;-89
2022/10/30 05:06:55;;;;;;;7.97;4.43;;;;;;;-145.48;100.00;64539.38;5991757;29;20379;-89
2022/10/30 05:09:57;;;;;;;12.90;5.20;;;;;;;-145.48;100.00;64539.38;5991676;29;20902;-89
2022/10/30 05:12:59;;;;;;;9.65;4.70;;;;;;;-145.48;100.00;64539.38;5991324;29;20204;-89
2022/10/30 05:16:01;;;;;;;9.57;4.40;;;;;;;-145.48;100.00;64539.38;5991225;29;20505;-89
2022/10/30 05:19:05;;;;;;;9.40;4.35;;;;;;;-145.48;100.00;64539.38;5991193;29;20055;-89
2022/10/30 05:22:09;;;;;;;13.32;4.70;;;;;;;-145.48;100.00;64539.38;5989875;29;20497;-89
2022/10/30 05:25:11;;;;;;;12.55;4.50;;;;;;;-145.48;100.00;64539.38;5991786;29;20084;-90
2022/10/30 05:28:13;;;;;;;12.50;4.38;;;;;;;-145.48;100.00;64539.38;5990769;29;20062;-89
2022/10/30 05:31:19;;;;;;;8.57;4.15;;;;;;;-145.48;100.00;64539.38;5991244;29;20684;-89
2022/10/30 05:34:39;;;;;;;11.30;5.20;;;;;;;-145.48;100.00;64539.38;5978241;29;20463;-89
2022/10/30 05:37:42;;;;;;;10.27;4.55;;;;;;;-145.48;100.00;64539.38;5990879;29;20293;-90
2022/10/30 05:40:46;;;;;;;8.57;4.40;;;;;;;-145.48;100.00;64539.38;5991503;29;20051;-90
2022/10/30 05:43:48;;;;;;;8.85;4.22;;;;;;;-145.48;100.00;64539.38;5992910;29;20562;-89
2022/10/30 05:46:50;;;;;;;12.15;4.63;;;;;;;-145.48;100.00;64539.38;5976875;29;20359;-89
2022/10/30 05:49:59;;;;;;;11.07;4.68;;;;;;;-145.48;100.00;64539.38;5995118;29;20497;-89
2022/10/30 05:53:03;;;;;;;11.75;4.38;;;;;;;-145.48;100.00;64539.38;5994826;29;20046;-89
2022/10/30 05:56:06;;;;;;;8.43;4.28;;;;;;;-145.48;100.00;64539.38;5994968;29;20066;-90
2022/10/30 05:59:09;;;;;;;12.27;4.43;;;;;;;-145.48;100.00;64539.38;5994584;29;20056;-89
2022/10/30 06:02:11;;;;;;;12.23;4.50;;;;;;;-145.48;100.00;64539.38;5980977;29;20046;-89
2022/10/30 06:05:13;;;;;;;9.20;3.92;;;;;;;-145.48;100.00;64539.38;5994732;29;20050;-89
2022/10/30 06:08:18;;;;;;;10.73;4.75;;;;;;;-145.48;100.00;64539.38;5978760;29;20058;-89
2022/10/30 06:11:23;;;;;;;11.77;4.57;;;;;;;-145.48;100.00;64539.38;5994282;29;20046;-89
2022/10/30 06:14:28;;;;;;;7.47;4.63;;;;;;;-145.48;100.00;64539.38;5994675;29;20042;-89
2022/10/30 06:17:30;;;;;;;12.32;5.15;;;;;;;-145.48;100.00;64539.38;5979285;29;20615;-90
2022/10/30 06:20:53;;;;;;;12.57;4.20;;;;;;;-145.48;100.00;64539.38;5981034;29;20133;-89
2022/10/30 06:23:57;;;;;;;9.73;4.45;;;;;;;-145.48;100.00;64539.38;5993467;29;20145;-89
2022/10/30 06:27:11;;;;;;;10.13;3.92;;;;;;;-145.48;100.00;64539.38;5979318;29;20061;-89
2022/10/30 06:30:13;;;;;;;12.30;4.70;;;;;;;-145.48;100.00;64539.38;5979845;29;20585;-89
2022/10/30 06:33:15;;;;;;;8.82;4.75;;;;;;;-145.48;100.00;64539.38;5980248;29;20502;-89
2022/10/30 06:36:22;;;;;;;13.73;4.72;;;;;;;-145.48;100.00;64539.38;5994668;29;20050;-89
2022/10/30 06:39:24;;;;;;;9.77;4.55;;;;;;;-145.48;100.00;64539.38;5980192;29;20047;-89
2022/10/30 06:42:45;;;;;;;14.35;4.75;;;;;;;-145.48;100.00;64539.38;5980261;29;20047;-89
2022/10/30 06:46:03;;;;;;;9.50;4.43;;;;;;;-145.48;100.00;64539.38;5980857;29;20058;-89
2022/10/30 06:49:07;;;;;;;12.07;5.03;;;;;;;-145.48;100.00;64539.38;5993972;29;20417;-89
2022/10/30 06:52:09;;;;;;;8.07;4.60;;;;;;;-145.48;100.00;64539.38;5993020;29;20816;-89
2022/10/30 06:55:11;;;;;;;8.32;4.55;;;;;;;-145.48;100.00;64539.38;5992277;29;20600;-89
2022/10/30 06:58:19;;;;;;;9.93;4.68;;;;;;;-145.48;100.00;64539.38;5993394;29;20536;-89
2022/10/30 07:01:47;;;;;;;11.73;5.00;;;;;;;-145.48;100.00;64539.38;5953676;29;20240;-89
2022/10/30 07:04:57;;;;;;;8.73;4.50;;;;;;;-145.48;100.00;64539.38;5938586;29;20051;-89
2022/10/30 07:07:59;;;;;;;12.32;4.78;;;;;;;-145.48;100.00;64539.38;5952982;29;20054;-89
2022/10/30 07:11:01;;;;;;;11.93;4.88;;;;;;;-145.48;100.00;64539.38;5953332;29;20536;-89
2022/10/30 07:14:26;;;;;;;14.73;5.38;;;;;;;-145.48;100.00;64539.38;5997319;29;20510;-89
2022/10/30 07:17:33;;;;;;;12.35;5.05;;;;;;;-145.48;100.00;64539.38;5997545;29;20058;-89
2022/10/30 07:20:42;;;;;;;10.68;4.65;;;;;;;-145.48;100.00;64539.38;5998508;29;20569;-89
2022/10/30 07:23:43;;;;;;;12.40;4.38;;;;;;;-145.48;100.00;64539.38;5997502;29;20072;-89
2022/10/30 07:27:11;;;;;;;12.63;4.63;;;;;;;-145.48;100.00;64539.38;5941874;29;20070;-89
2022/10/30 07:30:32;;;;;;;15.23;4.82;;;;;;;-145.48;100.00;64539.38;5929934;29;20059;-90
2022/10/30 07:33:52;;;;;;;;;;;;;;;-145.48;100.00;64539.38;5931333;29;20059;-89
2022/10/30 07:37:13;;;;;;;8.15;4.68;;;;;;;-145.48;100.00;64539.38;5943046;29;20397;-89
2022/10/30 07:40:36;;;;;;;13.07;4.68;;;;;;;-145.48;100.00;64539.38;5930419;29;20074;-89
2022/10/30 07:43:42;;;;;;;10.30;4.72;;;;;;;-145.48;100.00;64539.38;5930069;29;20051;-89
2022/10/30 07:47:02;;;;;;;13.52;6.88;;;;;;;-145.48;100.00;64539.38;5942774;29;20331;-89
2022/10/30 07:50:19;;;;;;;11.13;5.03;;;;;;;-145.48;100.00;64539.38;5927071;29;20413;-90
2022/10/30 07:53:21;;;;;;;9.68;4.63;;;;;;;-145.48;100.00;64539.38;5907529;30;20594;-90
2022/10/30 07:56:23;;;;;;;11.90;4.82;;;;;;;-145.48;100.00;64539.38;5907965;30;20044;-90
2022/10/30 07:59:25;;;;;;;12.00;4.88;;;;;;;-145.48;100.00;64539.38;5908169;30;20138;-90
2022/10/30 08:02:50;;;;;;;;;;;;;;;-145.48;100.00;64539.38;5918500;29;20435;-90
2022/10/30 08:06:27;;;;;;;10.00;4.63;;;;;;;-145.48;100.00;64539.38;5979307;29;19936;-90
2022/10/30 08:09:30;;;;;;;12.50;5.10;;;;;;;-145.48;100.00;64539.38;5976233;29;20882;-90
2022/10/30 08:12:34;;;;;;;14.82;5.45;;;;;;;-145.48;100.00;64539.38;5992260;29;20600;-90
2022/10/30 08:15:38;;;;;;;11.15;5.07;;;;;;;-145.48;100.00;64539.38;5991772;29;20065;-91
2022/10/30 08:18:41;;;;;;;13.48;5.25;;;;;;;-145.48;100.00;64539.38;5977261;29;20465;-90
2022/10/30 08:21:44;;;;;;;13.60;4.57;;;;;;;-145.48;100.00;64539.38;5992553;29;20053;-91
2022/10/30 08:24:51;;;;;;;10.20;4.18;;;;;;;-145.48;100.00;64539.38;5991610;29;20050;-91
2022/10/30 08:28:06;;;;;;;8.57;4.90;;;;;;;-145.48;100.00;64539.38;5991741;29;20054;-91
2022/10/30 08:31:10;;;;;;;13.02;4.60;;;;;;;-145.48;100.00;64539.38;5976554;29;20544;-91
2022/10/30 08:34:33;;;;;;;10.52;5.15;;;;;;;-145.48;100.00;64539.38;5990256;29;20051;-91
2022/10/30 08:37:39;;;;;;;11.57;5.10;;;;;;;-145.48;100.00;64539.38;5991429;29;20061;-90
2022/10/30 08:40:41;;;;;;;12.00;4.35;;;;;;;-145.48;100.00;64539.38;5978705;29;20085;-90
2022/10/30 08:43:43;;;;;;;11.23;4.53;;;;;;;-145.48;100.00;64539.38;5976948;29;20057;-90
2022/10/30 08:46:45;;;;;;;11.68;4.45;;;;;;;-145.48;100.00;64539.38;5976899;29;20153;-91
2022/10/30 08:49:47;;;;;;;10.25;4.35;;;;;;;-145.48;100.00;64539.38;5976691;29;20054;-91
2022/10/30 08:52:52;;;;;;;9.02;4.15;;;;;;;-145.48;100.00;64539.38;5991010;29;20050;-90
2022/10/30 08:55:56;;;;;;;12.70;4.97;;;;;;;-145.48;100.00;64539.38;5991846;29;20699;-90
2022/10/30 08:59:16;;;;;;;13.55;5.70;;;;;;;-145.48;100.00;64539.38;5984788;29;20609;-90
2022/10/30 09:02:24;;;;;;;10.02;4.93;;;;;;;-145.48;100.00;64539.38;6002618;29;20065;-91
2022/10/30 09:05:44;;;;;;;;;;;;;;;-145.48;100.00;64539.38;5978811;29;20055;-91
2022/10/30 09:09:05;;;;;;;8.27;4.43;;;;;;;-145.48;100.00;64539.38;5977842;29;19928;-91
2022/10/30 09:12:15;;;;;;;12.50;4.97;;;;;;;-145.48;100.00;64539.38;5967229;29;20091;-91
2022/10/30 09:15:19;;;;;;;9.50;4.40;;;;;;;-145.48;100.00;64539.38;5990991;29;20115;-91
2022/10/30 09:18:28;;;;;;;13.77;4.45;;;;;;;-145.48;100.00;64539.38;5965442;29;20077;-91
2022/10/30 09:21:31;;;;;;;13.70;5.15;;;;;;;-145.48;100.00;64539.38;5980439;29;20050;-90
2022/10/30 09:24:34;;;;;;;9.07;4.38;;;;;;;-145.48;100.00;64539.38;5995121;29;20778;-91
2022/10/30 09:27:41;;;;;;;9.82;5.00;;;;;;;-145.48;100.00;64539.38;5981962;29;20160;-91
2022/10/30 09:30:48;;;;;;;12.65;5.72;;;;;;;-145.48;100.00;64539.38;5995475;29;20085;-91
2022/10/30 09:33:51;;;;;;;14.88;4.82;;;;;;;-145.48;100.00;64539.38;5995779;29;20505;-91
2022/10/30 09:37:11;;;;;;;9.05;4.80;;;;;;;-145.48;100.00;64539.38;5979324;29;20411;-91
2022/10/30 09:40:30;;;;;;;11.25;4.60;;;;;;;-145.48;100.00;64539.38;5966063;29;20145;-91
2022/10/30 09:43:50;;;;;;;8.77;4.65;;;;;;;-145.48;100.00;64539.38;5980120;29;20058;-90
2022/10/30 09:46:52;;;;;;;11.85;4.57;;;;;;;-145.48;100.00;64539.38;5980186;29;20042;-90
2022/10/30 09:50:31;;;;;;;9.98;4.93;;;;;;;-145.48;100.00;64539.38;5995640;29;20540;-90
2022/10/30 09:54:00;;;;;;;10.00;4.43;;;;;;;-145.48;100.00;64539.38;5980794;29;20038;-90
2022/10/30 09:57:38;;;;;;;9.18;4.38;;;;;;;-145.48;100.00;64539.38;5995363;29;20409;-90
2022/10/30 10:01:07;;;;;;;8.00;4.68;;;;;;;-145.48;100.00;64539.38;5995330;29;20394;-91
2022/10/30 10:04:28;;;;;;;11.47;4.63;;;;;;;-145.48;100.00;64539.38;5975395;29;20054;-90
2022/10/30 10:08:14;;;;;;;11.38;4.53;;;;;;;-145.48;100.00;64539.38;5991074;29;20513;-90
2022/10/30 10:12:00;;;;;;;9.93;4.82;;;;;;;-145.48;100.00;64539.38;6020113;29;20899;-90
2022/10/30 10:15:05;;;;;;;;;;;;;;;-145.48;100.00;64539.38;6023228;29;20178;-90
2022/10/30 10:18:25;;;;;;;8.32;4.38;;;;;;;-145.48;100.00;64539.38;6007243;29;20326;-90
2022/10/30 10:21:29;;;;;;;11.80;4.55;;;;;;;-145.48;100.00;64539.38;6023661;29;20105;-90
2022/10/30 10:24:41;;;;;;;12.10;4.60;;;;;;;-145.48;100.00;64539.38;6022317;29;20060;-90
2022/10/30 10:28:14;;;;;;;12.70;4.60;;;;;;;-145.48;100.00;64539.38;6022611;29;20085;-90
2022/10/30 10:31:44;;;;;;;7.60;4.00;;;;;;;-145.48;100.00;64539.38;6022155;29;20504;-90
2022/10/30 10:35:16;;;;;;;10.00;4.10;;;;;;;-145.48;100.00;64539.38;6023310;29;20069;-90
2022/10/30 10:38:43;;;;;;;9.48;4.22;;;;;;;-145.48;100.00;64539.38;6013895;29;20257;-90
2022/10/30 10:42:05;;;;;;;13.10;4.43;;;;;;;-145.48;100.00;64539.38;6022497;29;20045;-90
2022/10/30 10:45:40;;;;;;;8.48;4.28;;;;;;;-145.48;100.00;64539.38;6008550;29;20079;-90
2022/10/30 10:48:44;;;;;;;9.38;3.78;;;;;;;-145.48;100.00;64539.38;5980169;29;20049;-90
2022/10/30 10:52:07;;;;;;;10.02;4.53;;;;;;;-145.48;100.00;64539.38;5993771;29;20086;-90
2022/10/30 10:55:23;;;;;;;13.23;4.78;;;;;;;-145.48;100.00;64539.38;5979721;29;20149;-90
2022/10/30 10:58:50;;;;;;;10.80;4.38;;;;;;;-145.48;100.00;64539.38;5978836;29;20422;-90
2022/10/30 11:02:09;;;;;;;16.98;4.38;;;;;;;-145.48;100.00;64539.38;5980334;29;20102;-90
2022/10/30 11:05:26;;;;;;;9.88;4.55;;;;;;;-145.48;100.00;64539.38;5980159;29;20873;-90
2022/10/30 11:08:34;;;;;;;7.47;3.70;;;;;;;-145.48;100.00;64539.38;5979491;29;20054;-90
2022/10/30 11:11:36;;;;;;;14.15;4.43;;;;;;;-145.48;100.00;64539.38;5980272;29;20050;-89
2022/10/30 11:14:41;;;;;;;9.05;3.63;;;;;;;-145.48;100.00;64539.38;5993255;29;20052;-90
2022/10/30 11:18:02;;;;;;;12.27;4.30;;;;;;;-145.48;100.00;64539.38;5979857;29;20050;-90
2022/10/30 11:21:22;;;;;;;10.07;4.20;;;;;;;-145.48;100.00;64539.38;5979740;29;20116;-90
2022/10/30 11:24:27;;;;;;;7.47;4.10;;;;;;;-145.48;100.00;64539.38;5979888;29;20055;-90
2022/10/30 11:27:29;;;;;;;10.68;4.47;;;;;;;-145.48;100.00;64539.38;5979713;29;20057;-91
2022/10/30 11:30:32;;;;;;;8.02;4.40;;;;;;;-145.48;100.00;64539.38;5977189;29;20494;-92
2022/10/30 11:33:34;;;;;;;9.52;4.03;;;;;;;-145.48;100.00;64539.38;5979028;29;20168;-92
2022/10/30 11:36:37;;;;;;;8.13;3.92;;;;;;;-145.48;100.00;64539.38;5979061;29;20079;-92
2022/10/30 11:39:39;;;;;;;9.27;4.10;;;;;;;-145.48;100.00;64539.38;5979280;29;20050;-92
2022/10/30 11:42:46;;;;;;;9.88;3.80;;;;;;;-145.48;100.00;64539.38;5978044;29;20050;-92
2022/10/30 11:45:49;;;;;;;7.53;4.13;;;;;;;-145.48;100.00;64539.38;5977341;29;20042;-93
2022/10/30 11:48:55;;;;;;;7.10;3.92;;;;;;;-145.48;100.00;64539.38;5978867;29;20054;-93
2022/10/30 11:52:07;;;;;;;11.25;4.00;;;;;;;-145.48;100.00;64539.38;5978673;29;20054;-93
2022/10/30 11:55:34;;;;;;;10.98;4.43;;;;;;;-145.48;100.00;64539.38;5991851;29;20050;-92
2022/10/30 11:58:41;;;;;;;12.18;4.90;;;;;;;-145.48;100.00;64539.38;5978087;29;20307;-93
2022/10/30 12:02:18;;;;;;;13.13;4.32;;;;;;;-145.48;100.00;64539.38;5979459;29;20362;-95
2022/10/30 12:05:39;;;;;;;12.23;4.05;;;;;;;-145.48;100.00;64539.38;5978117;29;20069;-92
2022/10/30 12:09:08;;;;;;;9.40;3.85;;;;;;;-145.48;100.00;64539.38;5978390;29;20647;-93
2022/10/30 12:12:31;;;;;;;9.82;3.70;;;;;;;-145.48;100.00;64539.38;5972364;29;20061;-92
2022/10/30 12:15:36;;;;;;;7.00;3.55;;;;;;;-145.48;100.00;64539.38;5992927;29;20058;-92
2022/10/30 12:18:50;;;;;;;9.10;3.78;;;;;;;-145.48;100.00;64539.38;5968162;29;20050;-93
2022/10/30 12:22:00;;;;;;;6.35;3.70;;;;;;;-145.48;100.00;64539.38;5977415;29;20066;-92
2022/10/30 12:25:28;;;;;;;10.80;4.40;;;;;;;-145.48;100.00;64539.38;5988552;29;20038;-92
2022/10/30 12:28:33;;;;;;;11.52;4.15;;;;;;;-145.48;100.00;64539.38;5967916;29;20091;-92
2022/10/30 12:32:07;;;;;;;10.23;4.00;;;;;;;-145.48;100.00;64539.38;5978979;29;20038;-91
2022/10/30 12:35:21;;;;;;;12.57;4.10;;;;;;;-145.48;100.00;64539.38;5973498;29;20096;-92
2022/10/30 12:38:27;;;;;;;8.90;4.47;;;;;;;-145.48;100.00;64539.38;5972592;29;20067;-92
2022/10/30 12:42:03;;;;;;;10.30;3.90;;;;;;;-145.48;100.00;64539.38;5964535;29;20546;-92
2022/10/30 12:45:16;;;;;;;9.68;3.90;;;;;;;-145.48;100.00;64539.38;5966574;29;20063;-92
2022/10/30 12:48:32;;;;;;;11.68;4.38;;;;;;;-145.48;100.00;64539.38;5974573;29;20078;-92
2022/10/30 12:51:42;;;;;;;9.75;4.00;;;;;;;-145.48;100.00;64539.38;5973427;29;20528;-92
2022/10/30 12:54:57;;;;;;;12.40;4.18;;;;;;;-145.48;100.00;64539.38;5977088;29;20058;-92
2022/10/30 12:58:34;;;;;;;9.35;4.45;;;;;;;-145.48;100.00;64539.38;5977806;29;20191;-92
2022/10/30 13:01:57;;;;;;;11.27;4.70;;;;;;;-145.48;100.00;64539.38;5978442;29;20717;-92
2022/10/30 13:05:37;;;;;;;10.18;4.20;;;;;;;-145.48;100.00;64539.38;5978972;29;20066;-92
2022/10/30 13:09:17;;;;;;;6.95;4.18;;;;;;;-145.48;100.00;64539.38;5977104;29;20578;-92
2022/10/30 13:12:34;;;;;;;11.70;4.25;;;;;;;-145.48;100.00;64539.38;5988415;29;20651;-92
2022/10/30 13:15:43;;;;;;;9.07;4.03;;;;;;;-145.48;100.00;64539.38;5993769;29;20054;-93
2022/10/30 13:18:45;;;;;;;10.50;4.03;;;;;;;-145.48;100.00;64539.38;5981113;29;20078;-92
2022/10/30 13:22:12;;;;;;;11.20;4.55;;;;;;;-145.48;100.00;64539.38;5981762;29;20561;-92
2022/10/30 13:25:46;;;;;;;10.15;3.65;;;;;;;-145.48;100.00;64539.38;5995117;29;20137;-93
2022/10/30 13:29:06;;;;;;;7.53;4.20;;;;;;;-145.48;100.00;64539.38;5973945;29;20046;-92
2022/10/30 13:32:46;;;;;;;14.97;4.17;;;;;;;-145.48;100.00;64539.38;5973363;29;20486;-92
2022/10/30 13:35:58;;;;;;;8.93;4.35;;;;;;;-145.48;100.00;64539.38;5981505;29;20049;-93
2022/10/30 13:39:23;;;;;;;12.07;4.97;;;;;;;-145.48;100.00;64539.38;5995378;29;20087;-92
2022/10/30 13:42:50;;;;;;;18.13;4.40;;;;;;;-145.48;100.00;64539.38;5980981;29;20054;-93
2022/10/30 13:46:04;;;;;;;7.22;3.78;;;;;;;-145.48;100.00;64539.38;5981784;29;20411;-93
2022/10/30 13:49:24;;;;;;;8.23;3.63;;;;;;;-145.48;100.00;64539.38;5995419;29;20061;-92
2022/10/30 13:52:30;;;;;;;7.57;4.60;;;;;;;-145.48;100.00;64539.38;5994751;29;20187;-92
2022/10/30 13:55:34;;;;;;;9.05;4.55;;;;;;;-145.48;100.00;64539.38;5993068;29;20164;-92
2022/10/30 13:58:57;;;;;;;12.40;4.47;;;;;;;-145.48;100.00;64539.38;5980649;29;20050;-93
2022/10/30 14:02:15;;;;;;;8.38;4.07;;;;;;;-145.48;100.00;64539.38;5981149;29;20046;-93
2022/10/30 14:05:30;;;;;;;10.05;4.40;;;;;;;-145.48;100.00;64539.38;5994556;29;20061;-93
2022/10/30 14:08:38;;;;;;;11.43;4.28;;;;;;;-145.48;100.00;64539.38;5979741;29;20050;-93
2022/10/30 14:11:40;;;;;;;12.25;4.28;;;;;;;-145.48;100.00;64539.38;5979107;29;20432;-93
2022/10/30 14:14:46;;;;;;;11.35;4.07;;;;;;;-145.48;100.00;64539.38;5994752;29;20110;-93
2022/10/30 14:18:11;;;;;;;11.05;4.63;;;;;;;-145.48;100.00;64539.38;5994429;29;20034;-93
2022/10/30 14:21:52;;;;;;;10.90;4.82;;;;;;;-145.48;100.00;64539.38;5994810;29;20066;-92
2022/10/30 14:24:54;;;;;;;7.88;4.70;;;;;;;-145.48;100.00;64539.38;5993622;29;20058;-93